createdAt,value
2019-01-30T00:02:05.964Z,3.00
2019-01-30T00:04:33.443Z,3.00
2019-01-30T00:07:00.939Z,3.00
2019-01-30T00:09:28.400Z,3.00
2019-01-30T00:11:55.761Z,3.00
2019-01-30T00:14:23.239Z,3.00
2019-01-30T00:16:50.684Z,3.00
2019-01-30T00:19:18.236Z,3.00
2019-01-30T00:21:45.693Z,3.00
2019-01-30T00:24:13.068Z,3.00
2019-01-30T00:26:40.561Z,3.00
2019-01-30T00:29:08.257Z,3.00
2019-01-30T00:31:35.699Z,3.00
2019-01-30T00:34:03.309Z,3.00
2019-01-30T00:36:30.801Z,3.00
2019-01-30T00:38:58.157Z,3.00
2019-01-30T00:41:25.699Z,3.00
2019-01-30T00:43:53.163Z,3.00
2019-01-30T00:46:45.868Z,3.00
2019-01-30T00:49:13.224Z,3.00
2019-01-30T00:51:40.589Z,3.00
2019-01-30T00:54:08.091Z,3.00
2019-01-30T00:56:35.469Z,3.00
2019-01-30T00:59:03.030Z,3.00
2019-01-30T01:01:30.539Z,3.00
2019-01-30T01:03:58.053Z,3.00
2019-01-30T01:06:25.512Z,2.90
2019-01-30T01:08:52.985Z,2.80
2019-01-30T01:11:20.833Z,2.80
2019-01-30T01:13:48.316Z,2.80
2019-01-30T01:16:15.758Z,2.70
2019-01-30T01:18:43.232Z,2.70
2019-01-30T01:21:10.702Z,2.70
2019-01-30T01:23:38.169Z,2.70
2019-01-30T01:26:05.520Z,2.70
2019-01-30T01:28:32.982Z,2.70
2019-01-30T01:31:00.348Z,2.70
2019-01-30T01:33:27.957Z,2.70
2019-01-30T01:35:55.708Z,2.70
2019-01-30T01:38:23.177Z,2.60
2019-01-30T01:40:50.649Z,2.70
2019-01-30T01:43:18.140Z,2.70
2019-01-30T01:45:45.602Z,2.70
2019-01-30T01:48:13.076Z,2.60
2019-01-30T01:50:40.413Z,2.50
2019-01-30T01:53:07.923Z,2.50
2019-01-30T01:55:35.390Z,2.40
2019-01-30T01:58:02.940Z,2.40
2019-01-30T02:00:35.487Z,2.50
2019-01-30T02:02:59.802Z,2.50
2019-01-30T02:05:27.262Z,2.50
2019-01-30T02:07:54.655Z,2.40
2019-01-30T02:10:22.684Z,2.30
2019-01-30T02:12:50.552Z,2.40
2019-01-30T02:15:23.669Z,2.30
2019-01-30T02:17:51.592Z,2.30
2019-01-30T02:20:21.230Z,2.20
2019-01-30T02:22:48.758Z,2.30
2019-01-30T02:25:16.212Z,2.20
2019-01-30T02:27:43.706Z,2.20
2019-01-30T02:30:14.283Z,2.30
2019-01-30T02:32:41.764Z,2.30
2019-01-30T02:35:09.244Z,2.30
2019-01-30T02:37:37.904Z,2.30
2019-01-30T02:40:06.763Z,2.40
2019-01-30T02:42:35.642Z,2.40
2019-01-30T02:45:03.242Z,2.40
2019-01-30T02:47:30.680Z,2.40
2019-01-30T02:49:58.152Z,2.30
2019-01-30T02:52:25.613Z,2.40
2019-01-30T02:54:53.074Z,2.40
2019-01-30T02:57:20.457Z,2.40
2019-01-30T02:59:47.894Z,2.40
2019-01-30T03:02:20.090Z,2.40
2019-01-30T03:04:47.480Z,2.30
2019-01-30T03:07:14.972Z,2.30
2019-01-30T03:09:42.412Z,2.20
2019-01-30T03:12:09.853Z,2.20
2019-01-30T03:14:37.308Z,2.20
2019-01-30T03:17:04.762Z,2.20
2019-01-30T03:19:32.122Z,2.30
2019-01-30T03:21:59.503Z,2.30
2019-01-30T03:24:26.964Z,2.30
2019-01-30T03:26:54.420Z,2.30
2019-01-30T03:29:21.880Z,2.30
2019-01-30T03:31:49.342Z,2.30
2019-01-30T03:34:16.846Z,2.30
2019-01-30T03:36:44.334Z,2.30
2019-01-30T03:39:11.810Z,2.30
2019-01-30T03:41:39.298Z,2.20
2019-01-30T03:44:06.854Z,2.30
2019-01-30T03:46:34.237Z,2.30
2019-01-30T03:49:01.729Z,2.30
2019-01-30T03:51:29.198Z,2.20
2019-01-30T03:53:56.652Z,2.10
2019-01-30T03:56:24.155Z,2.00
2019-01-30T03:58:51.602Z,2.00
2019-01-30T04:01:26.565Z,2.00
2019-01-30T04:03:48.290Z,2.00
2019-01-30T04:06:15.769Z,2.10
2019-01-30T04:08:43.189Z,2.00
2019-01-30T04:11:10.703Z,2.00
2019-01-30T04:13:38.062Z,2.00
2019-01-30T04:16:05.458Z,2.10
2019-01-30T04:18:32.915Z,2.00
2019-01-30T04:21:00.318Z,2.00
2019-01-30T04:23:27.833Z,2.10
2019-01-30T04:25:55.299Z,2.00
2019-01-30T04:28:22.769Z,2.00
2019-01-30T04:30:50.258Z,2.00
2019-01-30T04:33:17.773Z,2.00
2019-01-30T04:35:45.231Z,1.90
2019-01-30T04:38:12.756Z,2.00
2019-01-30T04:40:40.265Z,2.00
2019-01-30T04:43:09.839Z,1.90
2019-01-30T04:45:37.333Z,2.00
2019-01-30T04:48:04.843Z,1.90
2019-01-30T04:50:32.305Z,1.90
2019-01-30T04:52:59.773Z,1.90
2019-01-30T04:55:27.263Z,2.00
2019-01-30T04:57:54.833Z,2.00
2019-01-30T05:00:22.860Z,2.10
2019-01-30T05:02:50.863Z,2.20
2019-01-30T05:05:18.329Z,2.20
2019-01-30T05:07:45.721Z,2.20
2019-01-30T05:10:13.341Z,2.20
2019-01-30T05:12:40.842Z,2.30
2019-01-30T05:15:13.611Z,2.30
2019-01-30T05:17:41.011Z,2.30
2019-01-30T05:20:13.060Z,2.30
2019-01-30T05:22:40.518Z,2.20
2019-01-30T05:25:08.170Z,2.10
2019-01-30T05:27:35.713Z,2.10
2019-01-30T05:30:05.341Z,2.10
2019-01-30T05:32:32.663Z,2.10
2019-01-30T05:35:02.427Z,2.10
2019-01-30T05:37:29.961Z,2.10
2019-01-30T05:39:57.391Z,2.20
2019-01-30T05:42:24.859Z,2.20
2019-01-30T05:44:52.240Z,2.20
2019-01-30T05:47:19.715Z,2.20
2019-01-30T05:49:47.210Z,2.20
2019-01-30T05:52:14.675Z,2.10
2019-01-30T05:54:42.128Z,2.20
2019-01-30T05:57:09.604Z,2.20
2019-01-30T05:59:37.091Z,2.10
2019-01-30T06:02:11.967Z,2.00
2019-01-30T06:04:34.036Z,2.00
2019-01-30T06:07:01.501Z,2.00
2019-01-30T06:09:28.948Z,2.00
2019-01-30T06:11:56.295Z,2.00
2019-01-30T06:14:23.729Z,1.90
2019-01-30T06:16:51.191Z,2.00
2019-01-30T06:19:18.573Z,2.00
2019-01-30T06:21:46.045Z,2.00
2019-01-30T06:24:13.533Z,1.90
2019-01-30T06:26:41.093Z,1.90
2019-01-30T06:29:08.480Z,1.90
2019-01-30T06:31:35.864Z,1.90
2019-01-30T06:34:04.217Z,1.90
2019-01-30T06:36:31.600Z,2.00
2019-01-30T06:38:59.146Z,2.00
2019-01-30T06:41:26.633Z,2.00
2019-01-30T06:43:54.312Z,2.00
2019-01-30T06:46:21.949Z,2.00
2019-01-30T06:48:52.237Z,1.90
2019-01-30T06:51:23.381Z,2.00
2019-01-30T06:53:50.960Z,2.00
2019-01-30T06:56:18.489Z,2.00
2019-01-30T06:58:45.976Z,2.10
2019-01-30T07:01:13.432Z,2.10
2019-01-30T07:03:40.964Z,2.00
2019-01-30T07:06:08.446Z,2.10
2019-01-30T07:08:35.946Z,2.10
2019-01-30T07:11:10.328Z,2.10
2019-01-30T07:13:32.868Z,2.10
2019-01-30T07:16:00.345Z,2.10
2019-01-30T07:18:27.793Z,2.00
2019-01-30T07:20:55.216Z,2.00
2019-01-30T07:23:22.588Z,2.00
2019-01-30T07:25:50.068Z,2.00
2019-01-30T07:28:17.414Z,2.00
2019-01-30T07:30:45.256Z,2.00
2019-01-30T07:33:12.714Z,2.00
2019-01-30T07:35:40.200Z,2.00
2019-01-30T07:38:07.631Z,2.00
2019-01-30T07:40:34.982Z,2.00
2019-01-30T07:43:02.386Z,2.00
2019-01-30T07:45:30.044Z,2.00
2019-01-30T07:47:57.440Z,2.00
2019-01-30T07:50:24.942Z,2.00
2019-01-30T07:52:52.398Z,1.90
2019-01-30T07:55:19.753Z,2.00
2019-01-30T07:57:47.139Z,2.00
2019-01-30T08:00:20.095Z,1.90
2019-01-30T08:02:53.535Z,1.90
2019-01-30T08:05:16.854Z,1.80
2019-01-30T08:07:44.341Z,1.80
2019-01-30T08:10:12.324Z,1.80
2019-01-30T08:12:39.885Z,1.70
2019-01-30T08:15:10.813Z,1.80
2019-01-30T08:17:38.354Z,1.80
2019-01-30T08:20:08.015Z,1.80
2019-01-30T08:22:35.462Z,1.80
2019-01-30T08:25:03.950Z,1.80
2019-01-30T08:27:34.015Z,1.80
2019-01-30T08:30:01.115Z,1.80
2019-01-30T08:32:28.818Z,1.80
2019-01-30T08:34:56.350Z,1.80
2019-01-30T08:37:23.815Z,1.80
2019-01-30T08:39:51.337Z,1.80
2019-01-30T08:42:18.798Z,1.90
2019-01-30T08:44:47.051Z,1.90
2019-01-30T08:47:14.972Z,2.00
2019-01-30T08:49:42.435Z,2.10
2019-01-30T08:52:09.911Z,2.10
2019-01-30T08:54:37.373Z,2.10
2019-01-30T08:57:04.817Z,2.20
2019-01-30T08:59:32.272Z,2.20
2019-01-30T09:02:00.867Z,2.30
2019-01-30T09:04:29.994Z,2.30
2019-01-30T09:06:57.443Z,2.30
2019-01-30T09:09:24.802Z,2.20
2019-01-30T09:11:52.142Z,2.20
2019-01-30T09:14:19.601Z,2.20
2019-01-30T09:16:46.970Z,2.30
2019-01-30T09:19:14.435Z,2.30
2019-01-30T09:21:41.923Z,2.30
2019-01-30T09:24:09.370Z,2.30
2019-01-30T09:26:36.747Z,2.40
2019-01-30T09:29:04.234Z,2.40
2019-01-30T09:31:31.705Z,2.40
2019-01-30T09:33:59.153Z,2.40
2019-01-30T09:36:26.694Z,2.40
2019-01-30T09:38:54.197Z,2.50
2019-01-30T09:41:21.711Z,2.60
2019-01-30T09:43:49.225Z,2.70
2019-01-30T09:46:16.740Z,2.70
2019-01-30T09:48:44.193Z,2.70
2019-01-30T09:54:07.060Z,2.90
2019-01-30T09:56:34.579Z,2.80
2019-01-30T09:59:02.175Z,2.90
2019-01-30T10:01:29.699Z,3.00
2019-01-30T10:03:57.181Z,3.00
2019-01-30T10:06:24.677Z,2.90
2019-01-30T10:08:52.135Z,2.90
2019-01-30T10:11:19.583Z,2.90
2019-01-30T10:13:46.974Z,2.90
2019-01-30T10:16:14.832Z,2.90
2019-01-30T10:18:42.226Z,2.90
2019-01-30T10:21:09.655Z,3.00
2019-01-30T10:23:37.107Z,3.00
2019-01-30T10:26:04.540Z,3.10
2019-01-30T10:28:32.036Z,3.10
2019-01-30T10:30:59.523Z,3.10
2019-01-30T10:33:26.947Z,3.00
2019-01-30T10:35:54.433Z,3.00
2019-01-30T10:38:21.887Z,3.10
2019-01-30T10:40:49.375Z,3.10
2019-01-30T10:43:16.834Z,3.10
2019-01-30T10:45:44.202Z,3.00
2019-01-30T10:48:11.759Z,2.90
2019-01-30T10:50:39.232Z,2.90
2019-01-30T10:53:26.194Z,2.80
2019-01-30T10:55:53.832Z,2.80
2019-01-30T10:58:21.293Z,2.80
2019-01-30T11:00:51.164Z,2.80
2019-01-30T11:03:18.994Z,2.80
2019-01-30T11:05:46.476Z,2.80
2019-01-30T11:08:13.979Z,2.90
2019-01-30T11:10:41.461Z,2.90
2019-01-30T11:13:08.937Z,2.90
2019-01-30T11:15:36.404Z,3.00
2019-01-30T11:18:06.292Z,3.10
2019-01-30T11:20:33.817Z,3.10
2019-01-30T11:23:01.289Z,3.20
2019-01-30T11:25:35.019Z,3.30
2019-01-30T11:28:02.386Z,3.30
2019-01-30T11:30:30.000Z,3.30
2019-01-30T11:32:57.482Z,3.40
2019-01-30T11:35:24.877Z,3.40
2019-01-30T11:37:52.491Z,3.50
2019-01-30T11:40:20.380Z,3.50
2019-01-30T11:42:47.938Z,3.60
2019-01-30T11:45:21.385Z,3.50
2019-01-30T11:47:48.898Z,3.50
2019-01-30T11:50:16.485Z,3.60
2019-01-30T11:52:43.956Z,3.60
2019-01-30T11:55:12.865Z,3.60
2019-01-30T11:57:40.422Z,3.50
2019-01-30T12:00:11.958Z,3.50
2019-01-30T12:02:47.689Z,3.50
2019-01-30T12:05:10.980Z,3.50
2019-01-30T12:07:38.440Z,3.60
2019-01-30T12:10:06.318Z,3.60
2019-01-30T12:12:33.709Z,3.60
2019-01-30T12:15:01.245Z,3.50
2019-01-30T12:17:28.695Z,3.60
2019-01-30T12:19:56.223Z,3.60
2019-01-30T12:22:23.704Z,3.70
2019-01-30T12:24:51.265Z,3.70
2019-01-30T12:27:18.727Z,3.80
2019-01-30T12:29:46.597Z,3.70
2019-01-30T12:32:13.960Z,3.80
2019-01-30T12:34:41.382Z,3.90
2019-01-30T12:37:08.843Z,3.90
2019-01-30T12:39:36.335Z,3.80
2019-01-30T12:42:03.972Z,3.90
2019-01-30T12:44:33.521Z,3.90
2019-01-30T12:47:00.823Z,3.90
2019-01-30T12:49:28.410Z,3.90
2019-01-30T12:51:55.970Z,3.90
2019-01-30T12:54:23.506Z,3.80
2019-01-30T12:56:51.039Z,3.70
2019-01-30T12:59:18.542Z,3.70
2019-01-30T13:01:45.971Z,3.70
2019-01-30T13:04:13.442Z,3.80
2019-01-30T13:06:40.941Z,3.80
2019-01-30T13:09:09.072Z,3.90
2019-01-30T13:11:36.598Z,4.10
2019-01-30T13:14:04.174Z,4.20
2019-01-30T13:16:31.543Z,4.40
2019-01-30T13:18:59.082Z,4.50
2019-01-30T13:21:26.632Z,4.60
2019-01-30T13:23:54.114Z,4.80
2019-01-30T13:26:21.624Z,5.20
2019-01-30T13:28:49.201Z,5.70
2019-01-30T13:31:16.682Z,6.00
2019-01-30T13:33:44.162Z,6.20
2019-01-30T13:36:11.948Z,6.30
2019-01-30T13:38:39.480Z,6.40
2019-01-30T13:41:06.898Z,6.40
2019-01-30T13:43:34.321Z,6.40
2019-01-30T13:46:05.513Z,6.50
2019-01-30T13:48:31.579Z,6.50
2019-01-30T13:50:59.289Z,6.40
2019-01-30T13:53:26.863Z,6.40
2019-01-30T13:55:54.378Z,6.40
2019-01-30T13:58:21.951Z,6.40
2019-01-30T14:00:49.538Z,6.50
2019-01-30T14:03:17.036Z,6.40
2019-01-30T14:05:44.640Z,6.20
2019-01-30T14:08:12.816Z,6.30
2019-01-30T14:10:40.858Z,6.60
2019-01-30T14:13:26.250Z,6.60
2019-01-30T14:15:54.314Z,6.60
2019-01-30T14:18:21.900Z,6.80
2019-01-30T14:20:49.428Z,6.90
2019-01-30T14:23:17.091Z,6.90
2019-01-30T14:25:44.570Z,7.10
2019-01-30T14:28:12.361Z,7.50
2019-01-30T14:30:39.921Z,7.80
2019-01-30T14:33:07.572Z,7.70
2019-01-30T14:35:41.248Z,8.40
2019-01-30T14:38:08.755Z,9.10
2019-01-30T14:40:36.208Z,9.60
2019-01-30T14:43:03.955Z,9.60
2019-01-30T14:45:31.432Z,10.00
2019-01-30T14:47:58.889Z,10.10
2019-01-30T14:50:26.597Z,9.70
2019-01-30T14:52:54.159Z,9.70
2019-01-30T14:55:21.775Z,10.10
2019-01-30T14:57:49.462Z,9.70
2019-01-30T15:00:22.361Z,9.40
2019-01-30T15:02:49.995Z,9.60
2019-01-30T15:05:22.298Z,9.70
2019-01-30T15:07:49.334Z,9.50
2019-01-30T15:10:17.428Z,9.80
2019-01-30T15:12:45.032Z,9.70
2019-01-30T15:15:14.383Z,9.30
2019-01-30T15:17:41.843Z,8.80
2019-01-30T15:20:13.519Z,9.00
2019-01-30T15:22:40.951Z,9.30
2019-01-30T15:25:09.682Z,9.50
2019-01-30T15:27:37.098Z,9.20
2019-01-30T15:30:07.451Z,8.40
2019-01-30T15:32:34.809Z,7.80
2019-01-30T15:35:02.315Z,7.30
2019-01-30T15:37:29.790Z,6.80
2019-01-30T15:39:57.161Z,6.80
2019-01-30T15:42:24.637Z,7.40
2019-01-30T15:44:52.065Z,8.00
2019-01-30T15:47:19.463Z,8.30
2019-01-30T15:49:46.879Z,8.40
2019-01-30T15:52:14.405Z,8.10
2019-01-30T15:54:41.929Z,7.80
2019-01-30T15:57:09.412Z,7.50
2019-01-30T15:59:36.939Z,7.20
2019-01-30T16:02:04.705Z,6.90
2019-01-30T16:04:32.141Z,6.50
2019-01-30T16:06:59.699Z,6.20
2019-01-30T16:09:27.164Z,5.90
2019-01-30T16:11:54.759Z,5.60
2019-01-30T16:14:22.172Z,5.30
2019-01-30T16:16:49.666Z,5.20
2019-01-30T16:19:17.191Z,5.00
2019-01-30T16:21:44.685Z,4.90
2019-01-30T16:24:12.188Z,4.80
2019-01-30T16:26:39.653Z,4.60
2019-01-30T16:29:07.046Z,4.40
2019-01-30T16:31:34.550Z,4.40
2019-01-30T16:34:02.053Z,4.20
2019-01-30T16:36:29.575Z,4.20
2019-01-30T16:38:57.089Z,4.10
2019-01-30T16:41:24.530Z,4.00
2019-01-30T16:43:52.042Z,3.90
2019-01-30T16:46:19.519Z,3.80
2019-01-30T16:48:47.350Z,3.70
2019-01-30T16:51:14.877Z,3.60
2019-01-30T16:53:42.368Z,3.60
2019-01-30T16:56:09.860Z,3.60
2019-01-30T16:58:37.244Z,3.50
2019-01-30T17:01:04.877Z,3.40
2019-01-30T17:03:32.327Z,3.40
2019-01-30T17:06:06.927Z,3.30
2019-01-30T17:08:29.114Z,3.30
2019-01-30T17:10:56.551Z,3.30
2019-01-30T17:13:24.084Z,3.30
2019-01-30T17:15:51.610Z,3.40
2019-01-30T17:18:19.129Z,3.30
2019-01-30T17:20:46.609Z,3.30
2019-01-30T17:23:14.124Z,3.20
2019-01-30T17:25:41.724Z,3.20
2019-01-30T17:28:09.319Z,3.20
2019-01-30T17:30:40.134Z,3.20
2019-01-30T17:33:07.636Z,3.20
2019-01-30T17:35:35.648Z,3.20
2019-01-30T17:38:03.322Z,3.10
2019-01-30T17:40:30.850Z,3.00
2019-01-30T17:42:58.321Z,3.00
2019-01-30T17:45:25.757Z,2.90
2019-01-30T17:47:53.370Z,2.90
2019-01-30T17:50:22.201Z,2.80
2019-01-30T17:52:49.686Z,2.80
2019-01-30T17:55:17.211Z,2.70
2019-01-30T17:57:44.721Z,2.70
2019-01-30T18:00:19.588Z,2.70
2019-01-30T18:02:47.086Z,2.60
2019-01-30T18:05:14.490Z,2.60
2019-01-30T18:07:41.941Z,2.50
2019-01-30T18:10:10.002Z,2.50
2019-01-30T18:12:37.534Z,2.50
2019-01-30T18:15:05.528Z,2.40
2019-01-30T18:17:33.132Z,2.40
2019-01-30T18:20:00.521Z,2.30
2019-01-30T18:22:28.018Z,2.30
2019-01-30T18:24:55.522Z,2.40
2019-01-30T18:27:23.146Z,2.30
2019-01-30T18:29:50.701Z,2.30
2019-01-30T18:32:18.252Z,2.30
2019-01-30T18:34:45.704Z,2.40
2019-01-30T18:37:13.163Z,2.40
2019-01-30T18:39:40.607Z,2.40
2019-01-30T18:42:08.287Z,2.30
2019-01-30T18:44:35.633Z,2.40
2019-01-30T18:47:03.086Z,2.40
2019-01-30T18:49:30.540Z,2.40
2019-01-30T18:51:58.010Z,2.40
2019-01-30T18:54:25.543Z,2.30
2019-01-30T18:56:53.006Z,2.30
2019-01-30T18:59:20.479Z,2.30
2019-01-30T19:01:48.017Z,2.30
2019-01-30T19:04:15.566Z,2.20
2019-01-30T19:06:52.131Z,2.20
2019-01-30T19:09:12.222Z,2.10
2019-01-30T19:11:39.936Z,2.00
2019-01-30T19:14:07.361Z,2.00
2019-01-30T19:16:35.016Z,2.00
2019-01-30T19:19:03.609Z,1.90
2019-01-30T19:21:31.909Z,1.90
2019-01-30T19:23:59.972Z,1.90
2019-01-30T19:26:27.500Z,1.90
2019-01-30T19:28:55.174Z,1.80
2019-01-30T19:31:22.985Z,1.80
2019-01-30T19:33:50.851Z,1.60
2019-01-30T19:36:18.366Z,1.60
2019-01-30T19:38:47.891Z,1.50
2019-01-30T19:41:15.328Z,1.60
2019-01-30T19:43:42.950Z,1.60
2019-01-30T19:46:10.469Z,1.50
2019-01-30T19:48:38.047Z,1.50
2019-01-30T19:51:05.632Z,1.50
2019-01-30T19:53:33.022Z,1.50
2019-01-30T19:56:03.621Z,1.40
2019-01-30T19:58:31.410Z,1.40
2019-01-30T20:00:58.901Z,1.30
2019-01-30T20:03:31.291Z,1.20
2019-01-30T20:05:59.241Z,1.20
2019-01-30T20:08:26.813Z,1.30
2019-01-30T20:10:54.225Z,1.30
2019-01-30T20:13:34.809Z,1.30
2019-01-30T20:16:02.701Z,1.30
2019-01-30T20:18:32.701Z,1.30
2019-01-30T20:21:00.188Z,1.20
2019-01-30T20:23:27.575Z,1.20
2019-01-30T20:25:58.407Z,1.10
2019-01-30T20:28:28.313Z,1.10
2019-01-30T20:31:01.123Z,1.00
2019-01-30T20:33:32.454Z,1.00
2019-01-30T20:35:59.958Z,1.10
2019-01-30T20:38:27.397Z,1.10
2019-01-30T20:40:58.122Z,1.00
2019-01-30T20:43:30.543Z,1.00
2019-01-30T20:46:07.827Z,0.90
2019-01-30T20:48:45.589Z,0.90
2019-01-30T20:51:05.905Z,0.80
2019-01-30T20:53:36.302Z,0.70
2019-01-30T20:56:06.245Z,0.70
2019-01-30T20:58:33.812Z,0.70
2019-01-30T21:01:04.573Z,0.70
2019-01-30T21:03:34.472Z,0.70
2019-01-30T21:06:02.054Z,0.70
2019-01-30T21:08:32.341Z,0.60
2019-01-30T21:10:59.811Z,0.60
2019-01-30T21:13:31.552Z,0.60
2019-01-30T21:16:00.071Z,0.60
2019-01-30T21:18:33.596Z,0.60
2019-01-30T21:23:38.917Z,0.70
2019-01-30T21:26:09.157Z,0.70
2019-01-30T21:28:36.687Z,0.70
2019-01-30T21:31:05.420Z,0.60
2019-01-30T21:33:32.898Z,0.60
2019-01-30T21:36:00.354Z,0.60
2019-01-30T21:38:30.618Z,0.70
2019-01-30T21:40:59.788Z,0.60
2019-01-30T21:43:28.734Z,0.50
2019-01-30T21:45:56.136Z,0.50
2019-01-30T21:48:26.290Z,0.60
2019-01-30T21:50:56.982Z,0.50
2019-01-30T21:53:24.446Z,0.50
2019-01-30T21:55:51.823Z,0.50
2019-01-30T21:58:19.552Z,0.50
2019-01-30T22:00:47.076Z,0.50
2019-01-30T22:03:14.582Z,0.50
2019-01-30T22:05:42.049Z,0.50
2019-01-30T22:08:09.525Z,0.50
2019-01-30T22:10:37.904Z,0.40
2019-01-30T22:13:05.360Z,0.40
2019-01-30T22:15:32.884Z,0.40
2019-01-30T22:18:00.357Z,0.40
2019-01-30T22:20:27.763Z,0.40
2019-01-30T22:22:55.264Z,0.30
2019-01-30T22:25:23.067Z,0.30
2019-01-30T22:27:50.638Z,0.30
2019-01-30T22:30:23.384Z,0.30
2019-01-30T22:32:50.845Z,0.30
2019-01-30T22:35:18.378Z,0.30
2019-01-30T22:37:45.882Z,0.20
2019-01-30T22:40:13.556Z,0.20
2019-01-30T22:42:40.965Z,0.20
2019-01-30T22:45:10.317Z,0.10
2019-01-30T22:47:37.780Z,0.10
2019-01-30T22:50:06.706Z,0.10
2019-01-30T22:52:34.180Z,0.10
2019-01-30T22:55:01.641Z,0.10
2019-01-30T22:57:29.118Z,0.00
2019-01-30T22:59:56.649Z,0.00
2019-01-30T23:02:24.414Z,0.00
2019-01-30T23:05:06.594Z,0.00
2019-01-30T23:08:11.172Z,0.00
2019-01-30T23:11:21.886Z,0.00
2019-01-30T23:14:14.742Z,0.00
2019-01-30T23:17:26.466Z,0.00
2019-01-30T23:20:22.776Z,0.00
2019-01-30T23:23:41.318Z,0.00
2019-01-30T23:26:22.014Z,0.00
2019-01-30T23:29:27.443Z,-0.10
2019-01-30T23:32:23.225Z,-0.20
2019-01-30T23:35:16.014Z,-0.20
2019-01-30T23:38:00.158Z,-0.30
2019-01-30T23:40:53.214Z,-0.30
2019-01-30T23:43:44.638Z,-0.30
2019-01-30T23:46:45.610Z,-0.30
2019-01-30T23:49:43.724Z,-0.40
2019-01-30T23:52:48.103Z,-0.50
2019-01-30T23:55:53.159Z,-0.60
2019-01-30T23:58:52.096Z,-0.70
